Time;durP1;ratioP1;P1;durP2;ratioP2;P2;SDS_P1;SDS_P2;PMS_P1;PMS_P2;Temp;Humidity;BMP_temperature;BMP_pressure;BME280_temperature;BME280_humidity;BME280_pressure;Samples;Min_cycle;Max_cycle;Signal;HPM_P1;HPM_P2
2022/08/25 00:02:06;;;;;;;40.33;36.60;;;;;;;20.95;nan;101544.66;5015245;28;20041;-65
2022/08/25 00:04:34;;;;;;;41.38;37.10;;;;;;;20.94;nan;101542.91;5014447;28;20034;-67
2022/08/25 00:07:00;;;;;;;40.97;37.08;;;;;;;20.90;nan;101542.25;5031639;28;20060;-67
2022/08/25 00:09:26;;;;;;;41.08;36.55;;;;;;;20.88;nan;101546.00;5014845;28;20037;-67
2022/08/25 00:11:52;;;;;;;43.08;38.80;;;;;;;20.56;nan;101487.38;5032382;28;20057;-66
2022/08/25 00:14:25;;;;;;;44.08;38.97;;;;;;;20.44;nan;101463.22;5031431;28;20034;-66
2022/08/25 00:16:50;;;;;;;43.20;38.78;;;;;;;20.51;nan;101478.78;5032477;28;20030;-66
2022/08/25 00:19:19;;;;;;;44.88;40.13;;;;;;;20.82;nan;101543.69;5014688;28;20040;-67
2022/08/25 00:21:45;;;;;;;40.80;36.80;;;;;;;20.77;nan;101522.59;5032444;28;20049;-67
2022/08/25 00:24:11;;;;;;;42.78;38.72;;;;;;;20.75;nan;101529.88;5032245;28;20026;-65
2022/08/25 00:26:42;;;;;;;43.78;39.65;;;;;;;20.42;nan;101467.81;5014980;28;20408;-66
2022/08/25 00:29:09;;;;;;;41.92;37.97;;;;;;;20.76;nan;101535.13;4997796;28;20106;-65
2022/08/25 00:31:34;;;;;;;42.45;38.30;;;;;;;20.75;nan;101535.22;5031322;28;20040;-65
2022/08/25 00:34:00;;;;;;;42.53;38.17;;;;;;;20.69;nan;101528.44;5014504;28;20037;-70
2022/08/25 00:36:27;;;;;;;40.40;36.53;;;;;;;20.34;nan;101459.44;5030999;28;20033;-65
2022/08/25 00:38:52;;;;;;;41.10;37.10;;;;;;;20.41;nan;101479.44;4998209;28;20045;-66
2022/08/25 00:41:20;;;;;;;43.28;38.78;;;;;;;20.65;nan;101518.91;5031753;28;20123;-65
2022/08/25 00:43:53;;;;;;;44.03;39.72;;;;;;;20.64;nan;101521.66;5030456;28;20033;-68
2022/08/25 00:46:26;;;;;;;43.60;39.33;;;;;;;20.64;nan;101527.00;5031656;28;20141;-68
2022/08/25 00:48:58;;;;;;;45.75;41.42;;;;;;;20.31;nan;101475.66;5013648;28;20468;-65
2022/08/25 00:51:31;;;;;;;43.75;39.40;;;;;;;20.27;nan;101466.97;5014147;28;20116;-67
2022/08/25 00:53:57;;;;;;;42.90;38.55;;;;;;;20.49;nan;101512.78;5031790;28;20034;-66
2022/08/25 00:56:23;;;;;;;46.83;42.05;;;;;;;20.43;nan;101498.97;5014112;28;20101;-66
2022/08/25 00:58:49;;;;;;;43.85;39.67;;;;;;;20.49;nan;101509.28;4997999;28;20029;-67
2022/08/25 01:01:14;;;;;;;44.33;39.92;;;;;;;20.50;nan;101510.97;5014261;28;20124;-69
2022/08/25 01:03:40;;;;;;;46.03;41.38;;;;;;;20.54;nan;101517.84;5014200;28;20037;-66
2022/08/25 01:06:05;;;;;;;44.90;40.60;;;;;;;20.55;nan;101516.88;5032353;28;20038;-66
2022/08/25 01:08:32;;;;;;;47.40;42.75;;;;;;;20.18;nan;101446.13;5032124;28;20037;-65
2022/08/25 01:11:02;;;;;;;48.30;43.35;;;;;;;20.48;nan;101508.41;5030648;28;20037;-67
2022/08/25 01:13:44;;;;;;;46.95;42.30;;;;;;;20.29;nan;101459.69;5013862;28;20045;-68
2022/08/25 01:16:10;;;;;;;48.45;43.72;;;;;;;20.27;nan;101448.25;5013769;28;20512;-65
2022/08/25 01:18:56;;;;;;;47.15;42.83;;;;;;;20.58;nan;101501.50;5014198;28;20509;-66
2022/08/25 01:21:24;;;;;;;47.22;42.55;;;;;;;20.18;nan;101427.41;5031939;28;20087;-67
2022/08/25 01:23:51;;;;;;;45.95;41.47;;;;;;;20.52;nan;101485.84;5031658;28;20041;-67
2022/08/25 01:26:22;;;;;;;43.95;39.80;;;;;;;20.48;nan;101497.72;5030668;28;20078;-66
2022/08/25 01:31:34;;;;;;;47.85;43.15;;;;;;;20.43;nan;101491.75;5031611;28;20044;-66
2022/08/25 01:33:59;;;;;;;46.85;42.35;;;;;;;20.32;nan;101480.91;5031848;28;20043;-68
2022/08/25 01:36:26;;;;;;;48.10;43.03;;;;;;;20.35;nan;101499.41;5031898;28;20105;-67
2022/08/25 01:38:52;;;;;;;47.05;42.25;;;;;;;20.16;nan;101467.63;4997859;28;20068;-65
2022/08/25 01:41:32;;;;;;;44.72;40.15;;;;;;;20.28;nan;101495.44;5013396;28;20492;-65
2022/08/25 01:43:58;;;;;;;47.13;42.53;;;;;;;20.23;nan;101480.59;5031786;28;20037;-66
2022/08/25 01:46:24;;;;;;;46.75;41.92;;;;;;;20.22;nan;101482.41;4997837;28;20041;-67
2022/08/25 01:48:49;;;;;;;48.13;43.30;;;;;;;20.09;nan;101465.41;5030371;28;20041;-70
2022/08/25 01:51:15;;;;;;;47.28;42.47;;;;;;;19.84;nan;101434.00;5031628;28;20408;-64
2022/08/25 01:53:42;;;;;;;45.20;40.70;;;;;;;19.78;nan;101426.34;5013611;28;20033;-68
2022/08/25 01:56:10;;;;;;;46.20;41.75;;;;;;;19.96;nan;101454.63;5032758;28;20041;-68
2022/08/25 01:58:38;;;;;;;46.85;42.22;;;;;;;19.77;nan;101429.97;5000587;28;20488;-66
2022/08/25 02:01:07;;;;;;;45.25;41.13;;;;;;;19.75;nan;101428.34;5035097;28;20369;-66
2022/08/25 02:03:37;;;;;;;47.50;42.67;;;;;;;19.72;nan;101425.88;5035192;28;20037;-67
2022/08/25 02:06:03;;;;;;;48.22;43.40;;;;;;;20.02;nan;101490.78;5034695;28;20369;-66
2022/08/25 02:08:28;;;;;;;45.40;40.90;;;;;;;19.91;nan;101467.38;5034986;28;20041;-67
2022/08/25 02:10:54;;;;;;;43.70;39.67;;;;;;;19.95;nan;101484.09;5034744;28;20037;-67
2022/08/25 02:13:20;;;;;;;46.03;41.58;;;;;;;19.62;nan;101434.44;5017071;28;20060;-63
2022/08/25 02:15:51;;;;;;;44.88;40.47;;;;;;;19.81;nan;101474.25;5034721;28;20088;-64
2022/08/25 02:18:16;;;;;;;43.78;39.47;;;;;;;19.77;nan;101485.22;5017189;28;20030;-64
2022/08/25 02:20:42;;;;;;;42.95;38.75;;;;;;;19.72;nan;101477.47;5017325;28;20552;-67
2022/08/25 02:23:09;;;;;;;41.85;37.95;;;;;;;19.69;nan;101469.66;5017210;28;20040;-66
2022/08/25 02:25:36;;;;;;;44.15;39.63;;;;;;;19.60;nan;101457.72;5017058;28;20465;-64
2022/08/25 02:28:02;;;;;;;43.10;38.88;;;;;;;19.63;nan;101468.22;5034542;28;20392;-66
2022/08/25 02:30:27;;;;;;;41.58;37.58;;;;;;;19.30;nan;101400.75;5034523;28;20074;-66
2022/08/25 02:32:52;;;;;;;44.05;39.88;;;;;;;19.27;nan;101408.09;5016915;28;20072;-67
2022/08/25 02:35:18;;;;;;;42.55;38.33;;;;;;;19.61;nan;101467.44;5034440;28;20029;-66
2022/08/25 02:37:43;;;;;;;42.60;38.45;;;;;;;19.53;nan;101455.47;5034482;28;20095;-66
2022/08/25 02:40:09;;;;;;;44.33;39.72;;;;;;;19.64;nan;101453.88;5034543;28;20045;-66
2022/08/25 02:42:35;;;;;;;43.58;39.05;;;;;;;19.68;nan;101459.91;5034568;28;20029;-66
2022/08/25 02:45:00;;;;;;;41.95;38.00;;;;;;;19.57;nan;101447.22;5016824;28;20041;-65
2022/08/25 02:47:25;;;;;;;41.90;37.92;;;;;;;19.67;nan;101454.69;5034282;28;20033;-66
2022/08/25 02:49:51;;;;;;;42.35;38.33;;;;;;;19.65;nan;101458.28;5033949;28;20034;-65
2022/08/25 02:52:17;;;;;;;41.58;37.65;;;;;;;19.32;nan;101398.03;5034529;28;20036;-65
2022/08/25 02:54:43;;;;;;;40.65;36.75;;;;;;;19.57;nan;101443.69;5000332;28;20344;-66
2022/08/25 02:57:10;;;;;;;42.30;38.13;;;;;;;19.45;nan;101423.91;4999736;28;20080;-65
2022/08/25 02:59:36;;;;;;;42.30;38.17;;;;;;;19.23;nan;101394.09;5034265;28;20499;-66
2022/08/25 03:02:02;;;;;;;41.30;37.08;;;;;;;19.40;nan;101428.69;4999733;28;20033;-64
2022/08/25 03:04:28;;;;;;;40.63;36.65;;;;;;;19.42;nan;101431.25;5032687;28;20120;-67
2022/08/25 03:06:53;;;;;;;40.85;36.92;;;;;;;19.42;nan;101444.59;5015889;28;20065;-66
2022/08/25 03:09:19;;;;;;;41.33;37.22;;;;;;;19.35;nan;101428.03;5033558;28;20046;-65
2022/08/25 03:11:45;;;;;;;40.72;36.70;;;;;;;19.36;nan;101432.44;5033549;28;20115;-66
2022/08/25 03:14:11;;;;;;;43.50;39.38;;;;;;;19.31;nan;101418.50;5033813;28;20448;-64
2022/08/25 03:16:36;;;;;;;41.53;37.53;;;;;;;19.34;nan;101430.81;5033712;28;20030;-64
2022/08/25 03:19:03;;;;;;;39.80;35.88;;;;;;;19.33;nan;101426.41;5033487;28;20041;-67
2022/08/25 03:21:28;;;;;;;41.83;37.92;;;;;;;19.08;nan;101389.66;5033691;28;20128;-67
2022/08/25 03:23:55;;;;;;;42.50;38.30;;;;;;;19.25;nan;101424.22;5033495;28;20101;-65
2022/08/25 03:29:06;;;;;;;39.20;35.30;;;;;;;19.27;nan;101421.44;5032764;28;20404;-64
2022/08/25 03:31:32;;;;;;;40.60;36.60;;;;;;;18.96;nan;101375.22;5032120;28;20033;-65
2022/08/25 03:33:58;;;;;;;38.80;35.22;;;;;;;19.19;nan;101410.34;5032196;28;20091;-64
2022/08/25 03:36:24;;;;;;;40.13;34.63;;;;;;;19.17;nan;101417.59;5033371;28;20056;-65
2022/08/25 03:38:51;;;;;;;38.65;34.75;;;;;;;18.93;nan;101372.72;5033569;28;20464;-66
2022/08/25 03:41:24;;;;;;;38.28;34.78;;;;;;;19.01;nan;101389.16;5033351;28;20180;-66
2022/08/25 03:43:50;;;;;;;36.65;33.33;;;;;;;18.86;nan;101359.81;5033252;28;20029;-65
2022/08/25 03:46:18;;;;;;;38.30;34.70;;;;;;;19.05;nan;101398.69;5032915;28;20041;-64
2022/08/25 03:48:44;;;;;;;38.22;34.45;;;;;;;18.81;nan;101352.09;5032745;28;20021;-67
2022/08/25 03:51:09;;;;;;;38.08;34.58;;;;;;;18.69;nan;101328.81;5015440;28;20042;-66
2022/08/25 03:53:34;;;;;;;36.92;33.22;;;;;;;19.01;nan;101390.94;5015484;28;20056;-68
2022/08/25 03:56:00;;;;;;;36.97;32.95;;;;;;;19.00;nan;101384.75;5032900;28;20044;-66
2022/08/25 03:58:25;;;;;;;36.55;33.05;;;;;;;18.97;nan;101376.94;5032928;28;20042;-64
2022/08/25 04:00:51;;;;;;;36.88;32.92;;;;;;;18.90;nan;101367.56;5032588;28;20485;-68
2022/08/25 04:03:16;;;;;;;34.78;31.42;;;;;;;18.87;nan;101361.56;5015223;28;20041;-66
2022/08/25 04:05:42;;;;;;;33.58;30.50;;;;;;;18.94;nan;101385.09;4998823;28;20044;-65
2022/08/25 04:08:08;;;;;;;34.35;30.70;;;;;;;18.83;nan;101370.69;5032861;28;20030;-66
2022/08/25 04:10:34;;;;;;;33.60;30.42;;;;;;;18.61;nan;101346.22;5032943;28;20389;-66
2022/08/25 04:13:00;;;;;;;35.25;31.85;;;;;;;18.79;nan;101380.69;5032445;28;20107;-66
2022/08/25 04:15:25;;;;;;;32.15;29.30;;;;;;;18.79;nan;101370.03;5015100;28;20064;-65
2022/08/25 04:17:50;;;;;;;32.47;29.33;;;;;;;18.54;nan;101332.38;5033066;28;20034;-65
2022/08/25 04:20:15;;;;;;;31.83;28.77;;;;;;;18.74;nan;101365.91;5031725;28;20029;-65
2022/08/25 04:22:41;;;;;;;31.95;28.75;;;;;;;18.74;nan;101373.91;5032079;28;20041;-64
2022/08/25 04:25:07;;;;;;;31.45;28.48;;;;;;;18.69;nan;101360.81;5043520;28;20041;-65
2022/08/25 04:27:32;;;;;;;30.80;27.90;;;;;;;18.65;nan;101364.59;5052012;28;20033;-68
2022/08/25 04:29:58;;;;;;;31.20;28.48;;;;;;;18.68;nan;101374.25;5035405;28;20132;-66
2022/08/25 04:32:24;;;;;;;29.05;26.20;;;;;;;18.66;nan;101370.78;5051731;28;20037;-66
2022/08/25 04:34:49;;;;;;;29.20;26.60;;;;;;;18.62;nan;101371.94;5051646;28;20032;-64
2022/08/25 04:37:15;;;;;;;27.50;25.08;;;;;;;18.56;nan;101365.16;5052265;28;20398;-64
2022/08/25 04:39:41;;;;;;;27.45;24.95;;;;;;;18.56;nan;101372.28;5051403;28;20025;-64
2022/08/25 04:42:06;;;;;;;27.45;24.85;;;;;;;18.47;nan;101370.97;5051412;28;20484;-64
2022/08/25 04:44:32;;;;;;;29.92;26.85;;;;;;;18.49;nan;101374.44;5034211;28;20041;-65
2022/08/25 04:46:59;;;;;;;29.55;26.73;;;;;;;18.18;nan;101321.97;5034158;28;20489;-65
2022/08/25 04:49:25;;;;;;;30.67;27.70;;;;;;;18.17;nan;101325.56;5050053;28;20033;-65
2022/08/25 04:51:51;;;;;;;29.73;26.85;;;;;;;18.45;nan;101365.69;5033711;28;20514;-65
2022/08/25 04:54:20;;;;;;;28.17;24.23;;;;;;;18.37;nan;101361.75;5050877;28;20053;-65
2022/08/25 04:56:46;;;;;;;27.50;24.65;;;;;;;18.43;nan;101375.59;5034041;28;20395;-65
2022/08/25 04:59:13;;;;;;;27.67;25.27;;;;;;;18.44;nan;101379.13;5051568;28;20031;-65
2022/08/25 05:01:39;;;;;;;25.33;23.08;;;;;;;18.42;nan;101389.88;5033869;28;20407;-63
2022/08/25 05:04:10;;;;;;;24.95;22.65;;;;;;;18.41;nan;101379.31;5034310;28;20029;-66
2022/08/25 05:06:36;;;;;;;24.50;22.25;;;;;;;18.10;nan;101326.00;5034788;28;20075;-64
2022/08/25 05:09:02;;;;;;;24.10;21.98;;;;;;;18.08;nan;101318.09;5050788;28;20029;-64
2022/08/25 05:11:28;;;;;;;24.90;22.48;;;;;;;18.37;nan;101370.63;5051727;28;20148;-68
2022/08/25 05:13:55;;;;;;;23.60;21.52;;;;;;;18.40;nan;101370.44;5051669;28;20502;-65
2022/08/25 05:16:22;;;;;;;24.38;21.98;;;;;;;18.39;nan;101371.38;5050869;28;20063;-64
2022/08/25 05:18:48;;;;;;;22.73;20.67;;;;;;;18.39;nan;101376.72;5050658;28;20044;-65
2022/08/25 05:21:20;;;;;;;22.75;20.60;;;;;;;18.10;nan;101337.50;5051496;28;20033;-65
2022/08/25 05:23:46;;;;;;;24.90;22.60;;;;;;;18.30;nan;101363.91;5051338;28;20036;-66
2022/08/25 05:26:14;;;;;;;23.27;21.27;;;;;;;18.40;nan;101391.78;5050413;28;20518;-67
2022/08/25 05:28:40;;;;;;;22.63;20.58;;;;;;;18.34;nan;101375.25;5033921;28;20033;-66
2022/08/25 05:31:07;;;;;;;23.35;21.13;;;;;;;18.45;nan;101389.69;5052920;28;20117;-64
2022/08/25 05:33:33;;;;;;;22.25;20.35;;;;;;;18.50;nan;101390.31;5055460;28;20037;-64
2022/08/25 05:35:58;;;;;;;22.92;20.85;;;;;;;18.48;nan;101370.91;5037723;28;20037;-64
2022/08/25 05:38:24;;;;;;;25.05;22.63;;;;;;;18.53;nan;101384.81;5055444;28;20056;-70
2022/08/25 05:41:00;;;;;;;23.50;21.50;;;;;;;18.54;nan;101372.34;5037223;28;20606;-67
2022/08/25 05:43:25;;;;;;;23.55;21.17;;;;;;;18.62;nan;101378.13;5055631;28;20118;-65
2022/08/25 05:45:55;;;;;;;23.20;21.20;;;;;;;18.46;nan;101340.78;5055265;28;20496;-64
2022/08/25 05:48:20;;;;;;;22.60;20.33;;;;;;;18.82;nan;101384.97;5054809;28;20037;-66
2022/08/25 05:50:52;;;;;;;21.52;19.52;;;;;;;18.95;nan;101394.84;5054667;28;20044;-64
2022/08/25 05:53:19;;;;;;;19.25;17.65;;;;;;;19.06;nan;101389.72;5036246;28;20189;-67
2022/08/25 05:55:44;;;;;;;18.77;16.98;;;;;;;19.23;nan;101391.41;5036552;28;20103;-66
2022/08/25 05:58:10;;;;;;;17.85;16.02;;;;;;;19.08;nan;101333.63;5053442;28;20033;-65
2022/08/25 06:00:36;;;;;;;17.50;15.93;;;;;;;19.26;nan;101356.53;5035511;28;20033;-64
2022/08/25 06:03:01;;;;;;;17.33;15.75;;;;;;;19.32;nan;101352.66;5020633;28;20166;-65
2022/08/25 06:05:28;;;;;;;17.92;16.17;;;;;;;19.56;nan;101383.19;5054315;28;20036;-67
2022/08/25 06:07:53;;;;;;;17.85;15.43;;;;;;;19.57;nan;101375.13;5036115;28;20037;-65
2022/08/25 06:10:19;;;;;;;16.52;14.93;;;;;;;19.55;nan;101373.50;5036871;28;20432;-66
2022/08/25 06:12:44;;;;;;;15.23;13.90;;;;;;;19.66;nan;101387.03;5036266;28;20057;-67
2022/08/25 06:15:16;;;;;;;15.43;13.95;;;;;;;19.61;nan;101370.44;5053420;28;20129;-65
2022/08/25 06:17:42;;;;;;;14.82;13.27;;;;;;;19.63;nan;101376.53;5054496;28;20024;-64
2022/08/25 06:20:17;;;;;;;15.63;12.90;;;;;;;19.73;nan;101382.19;5054785;28;20491;-65
2022/08/25 06:22:43;;;;;;;14.60;13.07;;;;;;;19.75;nan;101385.63;5019781;28;20033;-65
2022/08/25 06:25:09;;;;;;;14.77;13.23;;;;;;;19.77;nan;101383.69;5053882;28;20457;-64
2022/08/25 06:27:35;;;;;;;14.68;13.15;;;;;;;19.80;nan;101387.03;5036489;28;20036;-67
2022/08/25 06:30:03;;;;;;;13.80;12.40;;;;;;;19.85;nan;101386.78;5036836;28;20033;-66
2022/08/25 06:32:32;;;;;;;14.73;12.73;;;;;;;19.92;nan;101393.44;5020440;28;20048;-66
2022/08/25 06:34:58;;;;;;;15.02;13.40;;;;;;;19.71;nan;101347.53;5054383;28;20036;-66
2022/08/25 06:37:24;;;;;;;13.95;12.40;;;;;;;20.07;nan;101404.03;5053700;28;20037;-66
2022/08/25 06:39:50;;;;;;;14.95;12.55;;;;;;;20.25;nan;101396.69;5054332;28;20496;-67
2022/08/25 06:42:15;;;;;;;13.90;12.50;;;;;;;20.44;nan;101420.44;5053114;28;20079;-67
2022/08/25 06:44:40;;;;;;;14.13;12.75;;;;;;;20.41;nan;101365.34;5054162;28;20041;-64
2022/08/25 06:47:06;;;;;;;14.15;11.48;;;;;;;20.95;nan;101424.22;5054212;28;20033;-66
2022/08/25 06:49:31;;;;;;;19.25;12.38;;;;;;;21.17;nan;101421.84;5036261;28;20041;-65
2022/08/25 06:51:57;;;;;;;17.10;11.68;;;;;;;21.43;nan;101434.31;5053058;28;20532;-66
2022/08/25 06:54:22;;;;;;;13.57;12.32;;;;;;;21.59;nan;101439.50;5036179;28;20078;-66
2022/08/25 06:56:47;;;;;;;14.45;12.27;;;;;;;21.71;nan;101446.72;5036341;28;20083;-64
2022/08/25 06:59:13;;;;;;;13.85;11.43;;;;;;;21.77;nan;101440.94;5036337;28;20044;-65
2022/08/25 07:01:38;;;;;;;12.50;11.38;;;;;;;21.60;nan;101409.09;5053538;28;20033;-64
2022/08/25 07:04:05;;;;;;;17.27;12.10;;;;;;;21.48;nan;101391.19;5053844;28;20477;-64
2022/08/25 07:06:34;;;;;;;12.88;11.73;;;;;;;21.77;nan;101428.34;5052682;28;20029;-64
2022/08/25 07:09:00;;;;;;;12.60;11.05;;;;;;;21.81;nan;101435.22;5054073;28;20037;-65
2022/08/25 07:11:25;;;;;;;15.88;12.95;;;;;;;22.03;nan;101431.09;5035573;28;20049;-64
2022/08/25 07:13:51;;;;;;;12.60;11.40;;;;;;;22.17;nan;101437.19;5053872;28;20033;-64
2022/08/25 07:16:19;;;;;;;12.73;11.30;;;;;;;22.10;nan;101402.84;5053747;28;20045;-63
2022/08/25 07:18:45;;;;;;;15.77;11.93;;;;;;;22.47;nan;101447.53;5053144;28;20112;-65
2022/08/25 07:21:12;;;;;;;13.00;11.30;;;;;;;22.64;nan;101431.09;5019505;28;20032;-64
2022/08/25 07:23:38;;;;;;;13.25;10.57;;;;;;;22.81;nan;101448.66;5019444;28;20029;-64
2022/08/25 07:26:24;;;;;;;13.35;10.13;;;;;;;22.87;nan;101424.03;5052361;28;20051;-65
2022/08/25 07:28:50;;;;;;;12.93;11.10;;;;;;;23.05;nan;101437.91;5052263;28;20033;-64
2022/08/25 07:31:16;;;;;;;12.82;10.30;;;;;;;23.17;nan;101451.28;5053145;28;20033;-64
2022/08/25 07:35:14;;;;;;;10.25;9.23;;;;;;;23.04;nan;101402.16;5035508;28;20033;-64
2022/08/25 07:36:26;;;;;;;14.27;9.63;;;;;;;23.53;nan;101450.34;5038294;28;20037;-64
2022/08/25 07:38:52;;;;;;;10.15;8.65;;;;;;;23.70;nan;101435.63;5053340;28;20052;-65
2022/08/25 07:41:17;;;;;;;11.02;8.30;;;;;;;24.10;nan;101458.44;5035387;28;20450;-67
2022/08/25 07:43:43;;;;;;;9.68;8.43;;;;;;;24.33;nan;101424.31;5035067;28;20033;-66
2022/08/25 07:46:09;;;;;;;12.68;8.50;;;;;;;24.88;nan;101461.06;5052863;28;20491;-65
2022/08/25 07:48:34;;;;;;;8.45;7.45;;;;;;;25.24;nan;101465.25;5052810;28;20502;-66
2022/08/25 07:51:06;;;;;;;11.70;7.82;;;;;;;25.72;nan;101463.81;5035289;28;20512;-67
2022/08/25 07:53:31;;;;;;;9.15;7.47;;;;;;;26.18;nan;101471.50;5052500;28;20121;-66
2022/08/25 07:55:57;;;;;;;7.30;6.60;;;;;;;26.67;nan;101476.97;5052947;28;20120;-68
2022/08/25 07:58:22;;;;;;;11.82;7.00;;;;;;;27.37;nan;101486.75;5052885;28;20103;-67
2022/08/25 08:00:48;;;;;;;7.25;6.55;;;;;;;27.74;nan;101489.59;5052967;28;20483;-68
2022/08/25 08:03:14;;;;;;;7.47;6.30;;;;;;;28.16;nan;101479.31;5052696;28;20029;-67
2022/08/25 08:05:43;;;;;;;9.27;6.50;;;;;;;28.53;nan;101496.38;5034901;28;20476;-67
2022/08/25 08:08:08;;;;;;;6.55;5.90;;;;;;;29.19;nan;101494.31;5034768;28;20029;-67
2022/08/25 08:10:33;;;;;;;8.85;6.82;;;;;;;29.66;nan;101504.94;5034905;28;20492;-65
2022/08/25 08:12:59;;;;;;;9.02;6.30;;;;;;;29.87;nan;101492.78;5052660;28;20051;-67
2022/08/25 08:15:24;;;;;;;7.15;5.40;;;;;;;29.97;nan;101501.69;5052982;28;20480;-67
2022/08/25 08:17:50;;;;;;;13.30;5.50;;;;;;;30.13;nan;101474.63;5052524;28;20524;-66
2022/08/25 08:20:16;;;;;;;8.07;5.95;;;;;;;30.64;nan;101517.22;5052558;28;20106;-67
2022/08/25 08:22:44;;;;;;;8.70;5.15;;;;;;;30.54;nan;101477.56;5018333;28;20491;-67
2022/08/25 08:25:10;;;;;;;5.85;5.07;;;;;;;30.88;nan;101497.41;5048819;28;20037;-67
2022/08/25 08:27:35;;;;;;;7.88;5.22;;;;;;;31.18;nan;101518.59;5042232;28;20049;-66
2022/08/25 08:30:03;;;;;;;5.35;4.82;;;;;;;31.17;nan;101527.75;5051946;28;20036;-65
2022/08/25 08:32:29;;;;;;;8.27;4.68;;;;;;;31.14;nan;101517.22;5040955;28;20416;-67
2022/08/25 08:34:54;;;;;;;8.38;4.22;;;;;;;31.28;nan;101515.72;5033643;28;20041;-65
2022/08/25 08:37:21;;;;;;;5.80;4.35;;;;;;;31.50;nan;101492.47;5051835;28;20048;-67
2022/08/25 08:39:46;;;;;;;7.63;4.38;;;;;;;32.11;nan;101528.22;5051399;28;20536;-67
2022/08/25 08:42:17;;;;;;;7.18;3.83;;;;;;;32.18;nan;101525.66;5051771;28;20119;-69
2022/08/25 08:44:46;;;;;;;8.68;4.32;;;;;;;32.30;nan;101529.72;5051397;28;20040;-67
2022/08/25 08:47:25;;;;;;;9.82;4.28;;;;;;;32.01;nan;101532.97;5049302;28;20527;-68
2022/08/25 08:50:32;;;;;;;5.90;3.33;;;;;;;31.19;nan;101524.88;5050660;28;20033;-67
2022/08/25 08:53:10;;;;;;;13.32;3.47;;;;;;;30.68;nan;101531.28;4933647;29;20035;-68
2022/08/25 08:55:45;;;;;;;4.20;3.30;;;;;;;30.14;nan;101475.47;5039694;28;20395;-68
2022/08/25 08:58:18;;;;;;;5.30;3.47;;;;;;;30.29;nan;101503.75;5017182;28;20029;-70
2022/08/25 09:00:50;;;;;;;5.30;3.10;;;;;;;30.77;nan;101524.03;5051306;28;20029;-68
2022/08/25 09:03:37;;;;;;;3.42;2.92;;;;;;;31.20;nan;101510.28;5050935;28;20484;-71
2022/08/25 09:06:08;;;;;;;5.82;3.17;;;;;;;31.13;nan;101480.19;5036137;28;20037;-66
2022/08/25 09:08:35;;;;;;;8.07;3.17;;;;;;;31.34;nan;101509.63;5034592;28;20017;-69
2022/08/25 09:11:19;;;;;;;5.32;2.83;;;;;;;31.21;nan;101520.13;5047475;28;20038;-69
2022/08/25 09:14:06;;;;;;;7.38;3.25;;;;;;;30.60;nan;101504.94;5057119;28;20110;-69
2022/08/25 09:16:56;;;;;;;8.00;3.28;;;;;;;30.35;nan;101515.84;5046081;28;20025;-70
2022/08/25 09:19:36;;;;;;;6.67;2.73;;;;;;;30.05;nan;101480.00;5040781;28;20040;-68
2022/08/25 09:22:24;;;;;;;4.32;2.70;;;;;;;30.57;nan;101518.00;5037580;28;20279;-67
2022/08/25 09:25:10;;;;;;;4.70;2.90;;;;;;;30.99;nan;101512.59;5021045;28;20033;-68
2022/08/25 09:27:44;;;;;;;7.25;2.88;;;;;;;31.31;nan;101498.22;5017619;28;20033;-69
2022/08/25 09:30:22;;;;;;;5.50;2.95;;;;;;;31.91;nan;101517.81;5039814;28;20029;-68
2022/08/25 09:32:52;;;;;;;7.20;2.75;;;;;;;32.07;nan;101483.28;5034421;28;20041;-67
2022/08/25 09:35:22;;;;;;;4.63;2.88;;;;;;;32.26;nan;101512.84;5035876;28;20028;-68
2022/08/25 09:37:59;;;;;;;6.07;2.83;;;;;;;32.00;nan;101522.22;5035315;28;20063;-66
2022/08/25 09:40:27;;;;;;;7.43;3.05;;;;;;;31.47;nan;101479.19;5035226;28;20075;-69
2022/08/25 09:42:57;;;;;;;7.75;3.20;;;;;;;31.52;nan;101513.09;5034548;28;20033;-69
2022/08/25 09:45:35;;;;;;;5.72;2.78;;;;;;;31.36;nan;101504.00;5017329;28;20033;-69
2022/08/25 09:48:01;;;;;;;3.13;2.70;;;;;;;31.23;nan;101500.94;5034402;28;20028;-70
2022/08/25 09:50:31;;;;;;;3.78;2.40;;;;;;;30.97;nan;101480.13;5033959;28;20116;-69
2022/08/25 09:53:11;;;;;;;6.70;2.73;;;;;;;31.03;nan;101493.06;5017942;28;20034;-70
2022/08/25 09:55:38;;;;;;;5.70;2.70;;;;;;;30.85;nan;101462.41;5035485;28;20030;-66
2022/08/25 09:58:17;;;;;;;5.47;2.42;;;;;;;31.65;nan;101494.34;5033788;28;20029;-68
2022/08/25 10:00:42;;;;;;;7.82;2.20;;;;;;;32.47;nan;101504.13;5035224;28;20184;-68
2022/08/25 10:03:20;;;;;;;4.25;2.58;;;;;;;33.32;nan;101464.16;5017043;28;20030;-69
2022/08/25 10:05:54;;;;;;;4.70;2.22;;;;;;;34.59;nan;101503.25;5035231;28;20037;-69
2022/08/25 10:08:38;;;;;;;4.63;2.42;;;;;;;35.30;nan;101496.13;5035128;28;20034;-71
2022/08/25 10:11:07;;;;;;;5.68;2.28;;;;;;;35.68;nan;101496.72;5034806;28;20048;-73
2022/08/25 10:13:36;;;;;;;4.25;2.30;;;;;;;35.49;nan;101460.72;5034406;28;20045;-68
2022/08/25 10:16:07;;;;;;;5.57;2.65;;;;;;;35.52;nan;101497.84;5035104;28;20060;-68
2022/08/25 10:18:32;;;;;;;5.20;2.53;;;;;;;35.45;nan;101489.56;5034556;28;20034;-69
2022/08/25 10:21:11;;;;;;;3.10;2.38;;;;;;;35.74;nan;101484.97;5017200;28;20038;-67
2022/08/25 10:23:55;;;;;;;3.50;2.58;;;;;;;36.34;nan;101489.88;5034677;28;20057;-68
2022/08/25 10:26:36;;;;;;;5.53;2.50;;;;;;;37.01;nan;101459.84;5034452;28;20033;-69
2022/08/25 10:29:10;;;;;;;7.50;2.60;;;;;;;37.31;nan;101454.81;5017619;28;20535;-67
2022/08/25 10:31:46;;;;;;;6.25;2.63;;;;;;;37.28;nan;101486.28;5034132;28;20032;-69
2022/08/25 10:34:18;;;;;;;8.93;2.65;;;;;;;37.45;nan;101457.38;5016994;28;20465;-67
2022/08/25 10:37:11;;;;;;;4.57;2.45;;;;;;;37.50;nan;101478.75;5017012;28;20043;-69
2022/08/25 10:39:43;;;;;;;4.60;2.40;;;;;;;37.41;nan;101471.72;5034592;28;20120;-69
2022/08/25 10:42:33;;;;;;;3.65;2.20;;;;;;;37.02;nan;101464.25;5034385;28;20037;-65
2022/08/25 10:48:13;;;;;;;4.30;2.13;;;;;;;35.89;nan;101423.59;5034014;28;19924;-65
2022/08/25 10:51:10;;;;;;;7.55;2.45;;;;;;;36.00;nan;101452.31;5034292;28;20120;-71
2022/08/25 10:53:51;;;;;;;6.03;2.58;;;;;;;36.57;nan;101422.72;5033457;28;20092;-68
2022/08/25 10:56:21;;;;;;;4.70;2.63;;;;;;;37.44;nan;101457.59;5000204;28;20056;-68
2022/08/25 10:58:53;;;;;;;5.80;2.47;;;;;;;38.35;nan;101447.63;5016734;28;20036;-69
2022/08/25 11:01:47;;;;;;;4.07;2.30;;;;;;;38.85;nan;101434.94;5033847;28;20473;-69
2022/08/25 11:04:19;;;;;;;4.95;2.50;;;;;;;39.10;nan;101428.41;5033773;28;20548;-67
2022/08/25 11:06:50;;;;;;;6.15;2.60;;;;;;;39.38;nan;101447.28;5016686;28;20047;-67
2022/08/25 11:09:23;;;;;;;4.55;2.45;;;;;;;39.49;nan;101445.72;5016136;28;20435;-64
2022/08/25 11:12:01;;;;;;;4.93;2.45;;;;;;;39.86;nan;101450.28;5032329;28;20049;-68
2022/08/25 11:14:38;;;;;;;6.32;2.83;;;;;;;39.76;nan;101438.94;5033770;28;20025;-66
2022/08/25 11:17:16;;;;;;;3.22;2.53;;;;;;;39.63;nan;101439.88;5032498;28;20025;-66
2022/08/25 11:19:48;;;;;;;9.88;2.53;;;;;;;40.01;nan;101447.19;5016196;28;20113;-69
2022/08/25 11:22:34;;;;;;;6.80;2.97;;;;;;;40.36;nan;101446.38;5016120;28;20116;-67
2022/08/25 11:25:19;;;;;;;4.03;2.55;;;;;;;40.73;nan;101441.69;5032322;28;20400;-67
2022/08/25 11:27:49;;;;;;;6.80;2.55;;;;;;;39.48;nan;101408.22;5015876;28;20283;-66
2022/08/25 11:30:16;;;;;;;3.78;2.13;;;;;;;38.59;nan;101452.41;5015074;28;20045;-68
2022/08/25 11:32:46;;;;;;;9.50;2.42;;;;;;;37.58;nan;101449.16;5033300;28;20030;-64
2022/08/25 11:35:13;;;;;;;6.90;2.45;;;;;;;36.73;nan;101442.59;4999597;28;20483;-65
2022/08/25 11:37:53;;;;;;;2.85;2.17;;;;;;;35.92;nan;101441.50;5033557;28;20030;-65
2022/08/25 11:40:34;;;;;;;5.38;2.55;;;;;;;35.79;nan;101395.69;5015705;28;20042;-65
2022/08/25 11:43:28;;;;;;;4.25;2.88;;;;;;;37.12;nan;101440.00;5015409;28;20041;-66
2022/08/25 11:46:04;;;;;;;7.68;2.35;;;;;;;38.49;nan;101392.34;5031961;28;20033;-67
2022/08/25 11:48:38;;;;;;;6.20;2.65;;;;;;;39.41;nan;101427.56;5033152;28;20120;-67
2022/08/25 11:51:05;;;;;;;2.88;1.88;;;;;;;40.17;nan;101430.91;5032861;28;20036;-66